Terminal Aerodrome Forecast
Issued by NWS San Angelo, TX

Home | Current Version | Previous Version | Text Only | Print | Product List | Glossary On
Versions: 1 2 3 4 5 6 7 8 9 10 11 12 13 14
602
FTUS44 KSJT 192053 AAA
TAFABI
TAF AMD
KABI 192053Z 1921/2018 15011KT P6SM SCT060 BKN250
     FM200900 15012KT P6SM VCSH BKN020
     FM201600 17013G22KT P6SM VCSH BKN035=

USA.gov is the U.S. government's official web portal to all federal, state and local government web resources and services.